sensor_id;sensor_type;location;lat;lon;timestamp;P1;durP1;ratioP1;P2;durP2;ratioP2
19940;SDS011;10132;50.864;5.176;2023-08-08T00:00:33;3.87;;;2.20;;
19940;SDS011;10132;50.864;5.176;2023-08-08T00:02:35;3.83;;;1.90;;
19940;SDS011;10132;50.864;5.176;2023-08-08T00:04:37;3.00;;;2.33;;
19940;SDS011;10132;50.864;5.176;2023-08-08T00:06:39;6.90;;;2.20;;
19940;SDS011;10132;50.864;5.176;2023-08-08T00:08:41;4.17;;;2.13;;
19940;SDS011;10132;50.864;5.176;2023-08-08T00:10:43;3.27;;;2.10;;
19940;SDS011;10132;50.864;5.176;2023-08-08T00:12:45;3.60;;;1.90;;
19940;SDS011;10132;50.864;5.176;2023-08-08T00:14:48;7.20;;;2.40;;
19940;SDS011;10132;50.864;5.176;2023-08-08T00:16:50;5.70;;;2.40;;
19940;SDS011;10132;50.864;5.176;2023-08-08T00:18:52;4.37;;;2.00;;
19940;SDS011;10132;50.864;5.176;2023-08-08T00:20:54;4.47;;;2.17;;
19940;SDS011;10132;50.864;5.176;2023-08-08T00:22:56;5.40;;;2.33;;
19940;SDS011;10132;50.864;5.176;2023-08-08T00:24:58;5.43;;;1.90;;
19940;SDS011;10132;50.864;5.176;2023-08-08T00:27:00;4.77;;;2.10;;
19940;SDS011;10132;50.864;5.176;2023-08-08T00:29:02;4.53;;;2.10;;
19940;SDS011;10132;50.864;5.176;2023-08-08T00:31:05;4.20;;;2.23;;
19940;SDS011;10132;50.864;5.176;2023-08-08T00:33:07;5.70;;;2.00;;
19940;SDS011;10132;50.864;5.176;2023-08-08T00:35:09;5.03;;;2.30;;
19940;SDS011;10132;50.864;5.176;2023-08-08T00:37:11;5.23;;;2.30;;
19940;SDS011;10132;50.864;5.176;2023-08-08T00:39:12;3.20;;;2.27;;
19940;SDS011;10132;50.864;5.176;2023-08-08T00:41:14;4.57;;;2.10;;
19940;SDS011;10132;50.864;5.176;2023-08-08T00:43:16;8.37;;;2.90;;
19940;SDS011;10132;50.864;5.176;2023-08-08T00:45:18;4.50;;;2.13;;
19940;SDS011;10132;50.864;5.176;2023-08-08T00:47:22;4.07;;;2.17;;
19940;SDS011;10132;50.864;5.176;2023-08-08T00:49:24;5.87;;;2.20;;
19940;SDS011;10132;50.864;5.176;2023-08-08T00:51:26;2.90;;;1.80;;
19940;SDS011;10132;50.864;5.176;2023-08-08T00:53:28;4.13;;;2.20;;
19940;SDS011;10132;50.864;5.176;2023-08-08T00:55:32;6.87;;;2.50;;
19940;SDS011;10132;50.864;5.176;2023-08-08T00:57:34;4.30;;;2.33;;
19940;SDS011;10132;50.864;5.176;2023-08-08T00:59:38;5.87;;;2.00;;
19940;SDS011;10132;50.864;5.176;2023-08-08T01:01:39;7.57;;;2.33;;
19940;SDS011;10132;50.864;5.176;2023-08-08T01:03:42;4.90;;;1.97;;
19940;SDS011;10132;50.864;5.176;2023-08-08T01:05:47;11.17;;;2.80;;
19940;SDS011;10132;50.864;5.176;2023-08-08T01:07:52;4.77;;;2.30;;
19940;SDS011;10132;50.864;5.176;2023-08-08T01:09:59;4.37;;;2.33;;
19940;SDS011;10132;50.864;5.176;2023-08-08T01:12:08;4.10;;;2.20;;
19940;SDS011;10132;50.864;5.176;2023-08-08T01:14:11;6.13;;;2.40;;
19940;SDS011;10132;50.864;5.176;2023-08-08T01:16:13;5.10;;;1.97;;
19940;SDS011;10132;50.864;5.176;2023-08-08T01:18:17;4.97;;;2.60;;
19940;SDS011;10132;50.864;5.176;2023-08-08T01:20:20;6.40;;;2.23;;
19940;SDS011;10132;50.864;5.176;2023-08-08T01:22:23;5.73;;;2.47;;
19940;SDS011;10132;50.864;5.176;2023-08-08T01:24:40;7.60;;;2.90;;
19940;SDS011;10132;50.864;5.176;2023-08-08T01:26:44;6.97;;;2.60;;
19940;SDS011;10132;50.864;5.176;2023-08-08T01:28:47;7.17;;;2.97;;
19940;SDS011;10132;50.864;5.176;2023-08-08T01:30:49;5.97;;;2.70;;
19940;SDS011;10132;50.864;5.176;2023-08-08T01:32:51;7.43;;;2.90;;
19940;SDS011;10132;50.864;5.176;2023-08-08T01:34:52;9.77;;;3.07;;
19940;SDS011;10132;50.864;5.176;2023-08-08T01:36:55;6.93;;;2.60;;
19940;SDS011;10132;50.864;5.176;2023-08-08T01:39:03;5.33;;;2.47;;
19940;SDS011;10132;50.864;5.176;2023-08-08T01:41:10;4.33;;;2.40;;
19940;SDS011;10132;50.864;5.176;2023-08-08T01:43:14;5.43;;;2.87;;
19940;SDS011;10132;50.864;5.176;2023-08-08T01:45:18;7.50;;;2.80;;
19940;SDS011;10132;50.864;5.176;2023-08-08T01:47:21;9.03;;;2.80;;
19940;SDS011;10132;50.864;5.176;2023-08-08T01:49:22;8.00;;;2.80;;
19940;SDS011;10132;50.864;5.176;2023-08-08T01:51:24;6.73;;;2.40;;
19940;SDS011;10132;50.864;5.176;2023-08-08T01:53:26;8.20;;;3.37;;
19940;SDS011;10132;50.864;5.176;2023-08-08T01:55:29;5.80;;;2.87;;
19940;SDS011;10132;50.864;5.176;2023-08-08T01:57:32;4.37;;;2.27;;
19940;SDS011;10132;50.864;5.176;2023-08-08T01:59:34;8.30;;;2.83;;
19940;SDS011;10132;50.864;5.176;2023-08-08T02:01:36;4.97;;;2.87;;
19940;SDS011;10132;50.864;5.176;2023-08-08T02:03:38;5.83;;;2.53;;
19940;SDS011;10132;50.864;5.176;2023-08-08T02:05:40;4.03;;;2.77;;
19940;SDS011;10132;50.864;5.176;2023-08-08T02:07:42;6.77;;;3.00;;
19940;SDS011;10132;50.864;5.176;2023-08-08T02:09:44;10.33;;;3.03;;
19940;SDS011;10132;50.864;5.176;2023-08-08T02:11:47;10.13;;;2.87;;
19940;SDS011;10132;50.864;5.176;2023-08-08T02:13:50;9.03;;;3.63;;
19940;SDS011;10132;50.864;5.176;2023-08-08T02:15:52;7.00;;;2.90;;
19940;SDS011;10132;50.864;5.176;2023-08-08T02:17:54;6.60;;;3.10;;
19940;SDS011;10132;50.864;5.176;2023-08-08T02:19:56;5.50;;;2.83;;
19940;SDS011;10132;50.864;5.176;2023-08-08T02:21:58;7.83;;;3.00;;
19940;SDS011;10132;50.864;5.176;2023-08-08T02:24:00;6.23;;;3.00;;
19940;SDS011;10132;50.864;5.176;2023-08-08T02:26:02;4.77;;;2.47;;
19940;SDS011;10132;50.864;5.176;2023-08-08T02:28:04;10.97;;;3.10;;
19940;SDS011;10132;50.864;5.176;2023-08-08T02:30:09;9.77;;;3.33;;
19940;SDS011;10132;50.864;5.176;2023-08-08T02:32:12;15.13;;;3.77;;
19940;SDS011;10132;50.864;5.176;2023-08-08T02:34:14;6.20;;;2.80;;
19940;SDS011;10132;50.864;5.176;2023-08-08T02:36:16;8.73;;;2.93;;
19940;SDS011;10132;50.864;5.176;2023-08-08T02:38:19;8.33;;;3.10;;
19940;SDS011;10132;50.864;5.176;2023-08-08T02:40:21;8.43;;;3.73;;
19940;SDS011;10132;50.864;5.176;2023-08-08T02:42:24;9.27;;;3.37;;
19940;SDS011;10132;50.864;5.176;2023-08-08T02:44:26;8.80;;;3.27;;
19940;SDS011;10132;50.864;5.176;2023-08-08T02:46:30;9.20;;;3.60;;
19940;SDS011;10132;50.864;5.176;2023-08-08T02:48:32;9.17;;;3.23;;
19940;SDS011;10132;50.864;5.176;2023-08-08T02:50:34;9.03;;;3.83;;
19940;SDS011;10132;50.864;5.176;2023-08-08T02:52:36;5.27;;;3.27;;
19940;SDS011;10132;50.864;5.176;2023-08-08T02:54:38;9.37;;;3.13;;
19940;SDS011;10132;50.864;5.176;2023-08-08T02:56:39;11.43;;;3.40;;
19940;SDS011;10132;50.864;5.176;2023-08-08T02:58:41;8.67;;;3.70;;
19940;SDS011;10132;50.864;5.176;2023-08-08T03:00:43;12.53;;;3.60;;
19940;SDS011;10132;50.864;5.176;2023-08-08T03:02:46;6.90;;;3.30;;
19940;SDS011;10132;50.864;5.176;2023-08-08T03:04:48;10.20;;;3.67;;
19940;SDS011;10132;50.864;5.176;2023-08-08T03:06:50;10.07;;;3.83;;
19940;SDS011;10132;50.864;5.176;2023-08-08T03:08:52;9.30;;;3.77;;
19940;SDS011;10132;50.864;5.176;2023-08-08T03:10:54;7.83;;;3.23;;
19940;SDS011;10132;50.864;5.176;2023-08-08T03:12:56;7.43;;;3.53;;
19940;SDS011;10132;50.864;5.176;2023-08-08T03:14:58;11.93;;;3.63;;
19940;SDS011;10132;50.864;5.176;2023-08-08T03:17:00;10.93;;;4.50;;
19940;SDS011;10132;50.864;5.176;2023-08-08T03:19:04;8.60;;;3.93;;
19940;SDS011;10132;50.864;5.176;2023-08-08T03:21:06;7.57;;;3.60;;
19940;SDS011;10132;50.864;5.176;2023-08-08T03:23:08;11.03;;;4.10;;
19940;SDS011;10132;50.864;5.176;2023-08-08T03:25:10;12.30;;;3.80;;
19940;SDS011;10132;50.864;5.176;2023-08-08T03:27:12;8.00;;;3.27;;
19940;SDS011;10132;50.864;5.176;2023-08-08T03:29:14;18.10;;;3.80;;
19940;SDS011;10132;50.864;5.176;2023-08-08T03:31:16;8.63;;;3.93;;
19940;SDS011;10132;50.864;5.176;2023-08-08T03:33:18;10.63;;;3.57;;
19940;SDS011;10132;50.864;5.176;2023-08-08T03:35:21;8.50;;;3.60;;
19940;SDS011;10132;50.864;5.176;2023-08-08T03:37:23;9.73;;;4.33;;
19940;SDS011;10132;50.864;5.176;2023-08-08T03:39:25;9.63;;;4.07;;
19940;SDS011;10132;50.864;5.176;2023-08-08T03:41:28;11.30;;;4.10;;
19940;SDS011;10132;50.864;5.176;2023-08-08T03:43:30;9.23;;;4.20;;
19940;SDS011;10132;50.864;5.176;2023-08-08T03:45:32;9.83;;;4.77;;
19940;SDS011;10132;50.864;5.176;2023-08-08T03:47:34;10.07;;;4.33;;
19940;SDS011;10132;50.864;5.176;2023-08-08T03:49:36;10.10;;;4.03;;
19940;SDS011;10132;50.864;5.176;2023-08-08T03:51:39;12.00;;;3.73;;
19940;SDS011;10132;50.864;5.176;2023-08-08T03:53:41;12.03;;;4.10;;
19940;SDS011;10132;50.864;5.176;2023-08-08T03:55:43;9.57;;;3.80;;
19940;SDS011;10132;50.864;5.176;2023-08-08T03:57:45;7.30;;;3.40;;
19940;SDS011;10132;50.864;5.176;2023-08-08T03:59:47;12.93;;;4.33;;
19940;SDS011;10132;50.864;5.176;2023-08-08T04:01:49;12.60;;;3.50;;
19940;SDS011;10132;50.864;5.176;2023-08-08T04:03:51;14.17;;;3.97;;
19940;SDS011;10132;50.864;5.176;2023-08-08T04:05:53;14.53;;;4.57;;
19940;SDS011;10132;50.864;5.176;2023-08-08T04:07:57;12.20;;;4.00;;
19940;SDS011;10132;50.864;5.176;2023-08-08T04:09:58;12.67;;;4.00;;
19940;SDS011;10132;50.864;5.176;2023-08-08T04:11:59;8.47;;;3.37;;
19940;SDS011;10132;50.864;5.176;2023-08-08T04:14:01;10.93;;;4.03;;
19940;SDS011;10132;50.864;5.176;2023-08-08T04:16:03;9.67;;;4.10;;
19940;SDS011;10132;50.864;5.176;2023-08-08T04:18:06;10.17;;;3.93;;
19940;SDS011;10132;50.864;5.176;2023-08-08T04:20:08;9.60;;;3.80;;
19940;SDS011;10132;50.864;5.176;2023-08-08T04:22:11;7.30;;;3.33;;
19940;SDS011;10132;50.864;5.176;2023-08-08T04:24:14;11.00;;;4.27;;
19940;SDS011;10132;50.864;5.176;2023-08-08T04:26:17;11.87;;;4.10;;
19940;SDS011;10132;50.864;5.176;2023-08-08T04:28:19;13.97;;;4.40;;
19940;SDS011;10132;50.864;5.176;2023-08-08T04:30:21;12.27;;;4.30;;
19940;SDS011;10132;50.864;5.176;2023-08-08T04:32:23;13.37;;;4.07;;
19940;SDS011;10132;50.864;5.176;2023-08-08T04:34:25;9.20;;;3.90;;
19940;SDS011;10132;50.864;5.176;2023-08-08T04:36:27;10.57;;;3.77;;
19940;SDS011;10132;50.864;5.176;2023-08-08T04:38:28;11.23;;;5.23;;
19940;SDS011;10132;50.864;5.176;2023-08-08T04:40:32;9.70;;;3.70;;
19940;SDS011;10132;50.864;5.176;2023-08-08T04:42:35;12.87;;;4.30;;
19940;SDS011;10132;50.864;5.176;2023-08-08T04:44:37;12.37;;;4.43;;
19940;SDS011;10132;50.864;5.176;2023-08-08T04:46:39;11.60;;;4.50;;
19940;SDS011;10132;50.864;5.176;2023-08-08T04:48:41;14.83;;;4.57;;
19940;SDS011;10132;50.864;5.176;2023-08-08T04:50:42;10.77;;;4.77;;
19940;SDS011;10132;50.864;5.176;2023-08-08T04:52:44;13.57;;;5.00;;
19940;SDS011;10132;50.864;5.176;2023-08-08T04:54:46;11.60;;;4.67;;
19940;SDS011;10132;50.864;5.176;2023-08-08T04:56:50;15.90;;;6.03;;
19940;SDS011;10132;50.864;5.176;2023-08-08T04:58:52;13.20;;;4.73;;
19940;SDS011;10132;50.864;5.176;2023-08-08T05:00:54;13.17;;;4.80;;
19940;SDS011;10132;50.864;5.176;2023-08-08T05:02:56;10.60;;;4.73;;
19940;SDS011;10132;50.864;5.176;2023-08-08T05:04:59;14.60;;;4.83;;
19940;SDS011;10132;50.864;5.176;2023-08-08T05:07:01;15.00;;;4.97;;
19940;SDS011;10132;50.864;5.176;2023-08-08T05:09:03;14.43;;;5.40;;
19940;SDS011;10132;50.864;5.176;2023-08-08T05:11:06;8.37;;;4.47;;
19940;SDS011;10132;50.864;5.176;2023-08-08T05:13:09;11.43;;;5.33;;
19940;SDS011;10132;50.864;5.176;2023-08-08T05:15:11;11.97;;;5.20;;
19940;SDS011;10132;50.864;5.176;2023-08-08T05:17:13;13.23;;;5.37;;
19940;SDS011;10132;50.864;5.176;2023-08-08T05:19:15;14.43;;;5.60;;
19940;SDS011;10132;50.864;5.176;2023-08-08T05:21:18;8.43;;;4.80;;
19940;SDS011;10132;50.864;5.176;2023-08-08T05:23:21;14.63;;;6.33;;
19940;SDS011;10132;50.864;5.176;2023-08-08T05:25:24;15.47;;;5.37;;
19940;SDS011;10132;50.864;5.176;2023-08-08T05:27:25;11.40;;;5.63;;
19940;SDS011;10132;50.864;5.176;2023-08-08T05:29:28;13.40;;;5.43;;
19940;SDS011;10132;50.864;5.176;2023-08-08T05:31:30;10.17;;;4.83;;
19940;SDS011;10132;50.864;5.176;2023-08-08T05:33:32;10.33;;;5.00;;
19940;SDS011;10132;50.864;5.176;2023-08-08T05:35:34;14.63;;;6.03;;
19940;SDS011;10132;50.864;5.176;2023-08-08T05:37:36;12.60;;;5.10;;
19940;SDS011;10132;50.864;5.176;2023-08-08T05:39:37;15.57;;;5.50;;
19940;SDS011;10132;50.864;5.176;2023-08-08T05:41:39;15.93;;;5.20;;
19940;SDS011;10132;50.864;5.176;2023-08-08T05:43:41;12.43;;;5.20;;
19940;SDS011;10132;50.864;5.176;2023-08-08T05:45:45;10.33;;;5.10;;
19940;SDS011;10132;50.864;5.176;2023-08-08T05:47:47;13.50;;;5.47;;
19940;SDS011;10132;50.864;5.176;2023-08-08T05:49:49;14.33;;;5.67;;
19940;SDS011;10132;50.864;5.176;2023-08-08T05:51:51;11.97;;;5.17;;
19940;SDS011;10132;50.864;5.176;2023-08-08T05:53:52;9.77;;;4.70;;
19940;SDS011;10132;50.864;5.176;2023-08-08T05:55:55;13.73;;;5.07;;
19940;SDS011;10132;50.864;5.176;2023-08-08T05:57:56;14.57;;;5.00;;
19940;SDS011;10132;50.864;5.176;2023-08-08T05:59:58;11.10;;;4.33;;
19940;SDS011;10132;50.864;5.176;2023-08-08T06:02:01;9.27;;;4.87;;
19940;SDS011;10132;50.864;5.176;2023-08-08T06:04:03;10.30;;;4.70;;
19940;SDS011;10132;50.864;5.176;2023-08-08T06:06:05;9.13;;;4.17;;
19940;SDS011;10132;50.864;5.176;2023-08-08T06:08:07;10.13;;;4.97;;
19940;SDS011;10132;50.864;5.176;2023-08-08T06:10:12;11.57;;;4.73;;
19940;SDS011;10132;50.864;5.176;2023-08-08T06:12:14;11.63;;;4.80;;
19940;SDS011;10132;50.864;5.176;2023-08-08T06:14:16;11.90;;;4.63;;
19940;SDS011;10132;50.864;5.176;2023-08-08T06:16:18;10.30;;;4.40;;
19940;SDS011;10132;50.864;5.176;2023-08-08T06:18:21;10.37;;;3.80;;
19940;SDS011;10132;50.864;5.176;2023-08-08T06:20:23;12.53;;;4.20;;
19940;SDS011;10132;50.864;5.176;2023-08-08T06:22:25;13.93;;;4.23;;
19940;SDS011;10132;50.864;5.176;2023-08-08T06:24:27;10.27;;;3.77;;
19940;SDS011;10132;50.864;5.176;2023-08-08T06:26:29;8.77;;;4.00;;
19940;SDS011;10132;50.864;5.176;2023-08-08T06:28:31;11.20;;;3.60;;
19940;SDS011;10132;50.864;5.176;2023-08-08T06:30:33;10.43;;;3.97;;
19940;SDS011;10132;50.864;5.176;2023-08-08T06:32:34;8.97;;;3.30;;
19940;SDS011;10132;50.864;5.176;2023-08-08T06:34:38;10.53;;;3.23;;
19940;SDS011;10132;50.864;5.176;2023-08-08T06:36:40;15.93;;;4.00;;
19940;SDS011;10132;50.864;5.176;2023-08-08T06:38:42;7.83;;;3.50;;
19940;SDS011;10132;50.864;5.176;2023-08-08T06:40:44;11.30;;;3.90;;
19940;SDS011;10132;50.864;5.176;2023-08-08T06:42:47;9.47;;;3.60;;
19940;SDS011;10132;50.864;5.176;2023-08-08T06:44:49;10.10;;;3.70;;
19940;SDS011;10132;50.864;5.176;2023-08-08T06:46:50;12.53;;;3.97;;
19940;SDS011;10132;50.864;5.176;2023-08-08T06:48:52;9.67;;;3.70;;
19940;SDS011;10132;50.864;5.176;2023-08-08T06:50:58;15.30;;;4.40;;
19940;SDS011;10132;50.864;5.176;2023-08-08T06:53:00;10.67;;;4.03;;
19940;SDS011;10132;50.864;5.176;2023-08-08T06:55:02;11.30;;;4.40;;
19940;SDS011;10132;50.864;5.176;2023-08-08T06:57:05;9.63;;;4.40;;
19940;SDS011;10132;50.864;5.176;2023-08-08T06:59:07;7.97;;;4.60;;
19940;SDS011;10132;50.864;5.176;2023-08-08T07:01:09;7.57;;;3.80;;
19940;SDS011;10132;50.864;5.176;2023-08-08T07:03:11;7.33;;;3.67;;
19940;SDS011;10132;50.864;5.176;2023-08-08T07:05:13;10.13;;;4.10;;
19940;SDS011;10132;50.864;5.176;2023-08-08T07:07:16;12.10;;;4.77;;
19940;SDS011;10132;50.864;5.176;2023-08-08T07:09:18;12.93;;;4.23;;
19940;SDS011;10132;50.864;5.176;2023-08-08T07:11:21;9.57;;;4.20;;
19940;SDS011;10132;50.864;5.176;2023-08-08T07:13:24;10.40;;;3.60;;
19940;SDS011;10132;50.864;5.176;2023-08-08T07:15:26;9.13;;;3.53;;
19940;SDS011;10132;50.864;5.176;2023-08-08T07:17:29;5.63;;;3.33;;
19940;SDS011;10132;50.864;5.176;2023-08-08T07:19:31;9.50;;;3.83;;
19940;SDS011;10132;50.864;5.176;2023-08-08T07:21:33;12.33;;;3.90;;
19940;SDS011;10132;50.864;5.176;2023-08-08T07:23:35;10.83;;;3.50;;
19940;SDS011;10132;50.864;5.176;2023-08-08T07:25:37;8.17;;;3.60;;
19940;SDS011;10132;50.864;5.176;2023-08-08T07:27:39;12.23;;;4.17;;
19940;SDS011;10132;50.864;5.176;2023-08-08T07:29:41;9.70;;;3.37;;
19940;SDS011;10132;50.864;5.176;2023-08-08T07:31:43;11.00;;;3.33;;
19940;SDS011;10132;50.864;5.176;2023-08-08T07:33:45;10.73;;;3.60;;
19940;SDS011;10132;50.864;5.176;2023-08-08T07:35:46;7.77;;;3.00;;
19940;SDS011;10132;50.864;5.176;2023-08-08T07:37:48;9.80;;;3.30;;
19940;SDS011;10132;50.864;5.176;2023-08-08T07:39:51;8.60;;;2.80;;
19940;SDS011;10132;50.864;5.176;2023-08-08T07:41:52;7.90;;;2.90;;
19940;SDS011;10132;50.864;5.176;2023-08-08T07:43:54;9.95;;;3.20;;
19940;SDS011;10132;50.864;5.176;2023-08-08T07:45:55;8.25;;;2.67;;
19940;SDS011;10132;50.864;5.176;2023-08-08T07:47:57;8.75;;;3.13;;
19940;SDS011;10132;50.864;5.176;2023-08-08T07:50:00;7.53;;;2.75;;
19940;SDS011;10132;50.864;5.176;2023-08-08T07:52:02;8.00;;;2.90;;
19940;SDS011;10132;50.864;5.176;2023-08-08T07:54:05;9.75;;;2.72;;
19940;SDS011;10132;50.864;5.176;2023-08-08T07:56:10;5.88;;;2.63;;
19940;SDS011;10132;50.864;5.176;2023-08-08T07:58:12;9.80;;;2.90;;
19940;SDS011;10132;50.864;5.176;2023-08-08T08:00:14;9.18;;;2.90;;
19940;SDS011;10132;50.864;5.176;2023-08-08T08:02:52;8.88;;;2.28;;
19940;SDS011;10132;50.864;5.176;2023-08-08T08:04:54;7.75;;;2.60;;
19940;SDS011;10132;50.864;5.176;2023-08-08T08:06:57;10.48;;;2.63;;
19940;SDS011;10132;50.864;5.176;2023-08-08T08:08:59;8.27;;;2.37;;
19940;SDS011;10132;50.864;5.176;2023-08-08T08:11:01;7.07;;;2.35;;
19940;SDS011;10132;50.864;5.176;2023-08-08T08:13:05;5.15;;;2.28;;
19940;SDS011;10132;50.864;5.176;2023-08-08T08:15:08;8.03;;;2.93;;
19940;SDS011;10132;50.864;5.176;2023-08-08T08:17:10;9.57;;;2.30;;
19940;SDS011;10132;50.864;5.176;2023-08-08T08:19:12;7.25;;;2.17;;
19940;SDS011;10132;50.864;5.176;2023-08-08T08:21:13;9.25;;;2.35;;
19940;SDS011;10132;50.864;5.176;2023-08-08T08:23:17;9.93;;;3.23;;
19940;SDS011;10132;50.864;5.176;2023-08-08T08:25:19;8.77;;;2.28;;
19940;SDS011;10132;50.864;5.176;2023-08-08T08:27:21;8.53;;;2.07;;
19940;SDS011;10132;50.864;5.176;2023-08-08T08:29:25;10.27;;;2.57;;
19940;SDS011;10132;50.864;5.176;2023-08-08T08:31:27;7.53;;;2.13;;
19940;SDS011;10132;50.864;5.176;2023-08-08T08:33:29;8.60;;;2.20;;
19940;SDS011;10132;50.864;5.176;2023-08-08T08:35:31;4.53;;;1.80;;
19940;SDS011;10132;50.864;5.176;2023-08-08T08:37:33;5.22;;;2.22;;
19940;SDS011;10132;50.864;5.176;2023-08-08T08:39:35;9.38;;;2.65;;
19940;SDS011;10132;50.864;5.176;2023-08-08T08:41:37;9.82;;;2.38;;
19940;SDS011;10132;50.864;5.176;2023-08-08T08:43:39;7.78;;;2.15;;
19940;SDS011;10132;50.864;5.176;2023-08-08T08:45:43;7.72;;;2.13;;
19940;SDS011;10132;50.864;5.176;2023-08-08T08:47:47;7.13;;;2.47;;
19940;SDS011;10132;50.864;5.176;2023-08-08T08:49:52;5.93;;;1.90;;
19940;SDS011;10132;50.864;5.176;2023-08-08T08:51:54;6.30;;;2.13;;
19940;SDS011;10132;50.864;5.176;2023-08-08T08:53:57;6.55;;;1.73;;
19940;SDS011;10132;50.864;5.176;2023-08-08T08:56:00;5.40;;;1.52;;
19940;SDS011;10132;50.864;5.176;2023-08-08T08:58:03;5.38;;;1.73;;
19940;SDS011;10132;50.864;5.176;2023-08-08T09:00:06;6.90;;;1.90;;
19940;SDS011;10132;50.864;5.176;2023-08-08T09:02:10;6.25;;;1.77;;
19940;SDS011;10132;50.864;5.176;2023-08-08T09:04:13;5.70;;;2.22;;
19940;SDS011;10132;50.864;5.176;2023-08-08T09:06:17;6.25;;;1.80;;
19940;SDS011;10132;50.864;5.176;2023-08-08T09:08:20;4.28;;;1.65;;
19940;SDS011;10132;50.864;5.176;2023-08-08T09:10:23;6.47;;;1.90;;
19940;SDS011;10132;50.864;5.176;2023-08-08T09:12:27;3.30;;;1.70;;
19940;SDS011;10132;50.864;5.176;2023-08-08T09:14:29;7.65;;;2.10;;
19940;SDS011;10132;50.864;5.176;2023-08-08T09:16:32;7.40;;;2.97;;
19940;SDS011;10132;50.864;5.176;2023-08-08T09:18:35;6.70;;;2.10;;
19940;SDS011;10132;50.864;5.176;2023-08-08T09:20:38;6.15;;;2.05;;
19940;SDS011;10132;50.864;5.176;2023-08-08T09:22:40;6.00;;;1.60;;
19940;SDS011;10132;50.864;5.176;2023-08-08T09:24:41;9.05;;;2.42;;
19940;SDS011;10132;50.864;5.176;2023-08-08T09:26:44;6.35;;;1.70;;
19940;SDS011;10132;50.864;5.176;2023-08-08T09:28:46;4.70;;;1.83;;
19940;SDS011;10132;50.864;5.176;2023-08-08T09:30:48;8.20;;;1.92;;
19940;SDS011;10132;50.864;5.176;2023-08-08T09:32:50;8.38;;;2.00;;
19940;SDS011;10132;50.864;5.176;2023-08-08T09:34:53;8.82;;;2.25;;
19940;SDS011;10132;50.864;5.176;2023-08-08T09:36:57;5.43;;;2.00;;
19940;SDS011;10132;50.864;5.176;2023-08-08T09:39:00;6.22;;;1.90;;
19940;SDS011;10132;50.864;5.176;2023-08-08T09:41:02;5.60;;;2.00;;
19940;SDS011;10132;50.864;5.176;2023-08-08T09:43:06;4.20;;;1.75;;
19940;SDS011;10132;50.864;5.176;2023-08-08T09:45:09;5.90;;;1.90;;
19940;SDS011;10132;50.864;5.176;2023-08-08T09:47:12;6.82;;;2.15;;
19940;SDS011;10132;50.864;5.176;2023-08-08T09:49:14;7.60;;;1.98;;
19940;SDS011;10132;50.864;5.176;2023-08-08T09:51:17;8.40;;;1.98;;
19940;SDS011;10132;50.864;5.176;2023-08-08T09:53:20;7.18;;;2.20;;
19940;SDS011;10132;50.864;5.176;2023-08-08T09:55:23;4.40;;;2.00;;
19940;SDS011;10132;50.864;5.176;2023-08-08T09:57:26;4.30;;;1.70;;
19940;SDS011;10132;50.864;5.176;2023-08-08T09:59:28;5.78;;;1.92;;
19940;SDS011;10132;50.864;5.176;2023-08-08T10:01:30;5.38;;;1.77;;
19940;SDS011;10132;50.864;5.176;2023-08-08T10:03:32;4.47;;;1.77;;
19940;SDS011;10132;50.864;5.176;2023-08-08T10:05:34;4.82;;;1.60;;
19940;SDS011;10132;50.864;5.176;2023-08-08T10:07:38;5.78;;;2.28;;
19940;SDS011;10132;50.864;5.176;2023-08-08T10:09:41;7.97;;;2.38;;
19940;SDS011;10132;50.864;5.176;2023-08-08T10:11:43;3.85;;;1.80;;
19940;SDS011;10132;50.864;5.176;2023-08-08T10:13:49;7.65;;;2.53;;
19940;SDS011;10132;50.864;5.176;2023-08-08T10:15:51;5.22;;;1.90;;
19940;SDS011;10132;50.864;5.176;2023-08-08T10:17:55;5.22;;;1.95;;
19940;SDS011;10132;50.864;5.176;2023-08-08T10:19:58;5.57;;;1.70;;
19940;SDS011;10132;50.864;5.176;2023-08-08T10:22:09;2.83;;;1.67;;
19940;SDS011;10132;50.864;5.176;2023-08-08T10:24:12;6.05;;;1.92;;
19940;SDS011;10132;50.864;5.176;2023-08-08T10:26:18;6.35;;;1.83;;
19940;SDS011;10132;50.864;5.176;2023-08-08T10:28:20;8.32;;;2.08;;
19940;SDS011;10132;50.864;5.176;2023-08-08T10:30:23;5.25;;;1.98;;
19940;SDS011;10132;50.864;5.176;2023-08-08T10:32:25;4.82;;;1.92;;
19940;SDS011;10132;50.864;5.176;2023-08-08T10:34:27;5.00;;;1.65;;
19940;SDS011;10132;50.864;5.176;2023-08-08T10:36:50;5.32;;;1.95;;
19940;SDS011;10132;50.864;5.176;2023-08-08T10:38:53;5.10;;;1.90;;
19940;SDS011;10132;50.864;5.176;2023-08-08T10:41:02;6.57;;;2.22;;
19940;SDS011;10132;50.864;5.176;2023-08-08T10:43:09;5.55;;;1.60;;
19940;SDS011;10132;50.864;5.176;2023-08-08T10:45:13;4.45;;;2.15;;
19940;SDS011;10132;50.864;5.176;2023-08-08T10:47:15;5.78;;;2.08;;
19940;SDS011;10132;50.864;5.176;2023-08-08T10:49:22;6.88;;;1.75;;
19940;SDS011;10132;50.864;5.176;2023-08-08T10:51:31;2.58;;;1.40;;
19940;SDS011;10132;50.864;5.176;2023-08-08T10:53:33;4.03;;;2.08;;
19940;SDS011;10132;50.864;5.176;2023-08-08T10:55:38;8.57;;;2.15;;
19940;SDS011;10132;50.864;5.176;2023-08-08T10:57:41;4.97;;;2.20;;
19940;SDS011;10132;50.864;5.176;2023-08-08T10:59:43;4.90;;;2.30;;
19940;SDS011;10132;50.864;5.176;2023-08-08T11:01:46;5.05;;;1.80;;
19940;SDS011;10132;50.864;5.176;2023-08-08T11:03:49;5.88;;;1.70;;
19940;SDS011;10132;50.864;5.176;2023-08-08T11:05:51;6.63;;;1.80;;
19940;SDS011;10132;50.864;5.176;2023-08-08T11:07:53;5.95;;;2.13;;
19940;SDS011;10132;50.864;5.176;2023-08-08T11:09:56;3.90;;;1.48;;
19940;SDS011;10132;50.864;5.176;2023-08-08T11:11:59;3.55;;;1.60;;
19940;SDS011;10132;50.864;5.176;2023-08-08T11:14:09;4.72;;;2.08;;
19940;SDS011;10132;50.864;5.176;2023-08-08T11:16:11;5.50;;;1.77;;
19940;SDS011;10132;50.864;5.176;2023-08-08T11:18:13;4.05;;;1.60;;
19940;SDS011;10132;50.864;5.176;2023-08-08T11:20:15;3.45;;;1.52;;
19940;SDS011;10132;50.864;5.176;2023-08-08T11:22:17;5.75;;;1.80;;
19940;SDS011;10132;50.864;5.176;2023-08-08T11:24:22;4.68;;;1.60;;
19940;SDS011;10132;50.864;5.176;2023-08-08T11:26:25;2.83;;;1.67;;
19940;SDS011;10132;50.864;5.176;2023-08-08T11:28:27;7.13;;;1.77;;
19940;SDS011;10132;50.864;5.176;2023-08-08T11:30:31;7.15;;;1.65;;
19940;SDS011;10132;50.864;5.176;2023-08-08T11:32:38;4.65;;;1.83;;
19940;SDS011;10132;50.864;5.176;2023-08-08T11:34:40;2.50;;;1.50;;
19940;SDS011;10132;50.864;5.176;2023-08-08T11:36:43;3.15;;;1.73;;
19940;SDS011;10132;50.864;5.176;2023-08-08T11:38:45;6.15;;;1.80;;
19940;SDS011;10132;50.864;5.176;2023-08-08T11:40:48;4.45;;;1.70;;
19940;SDS011;10132;50.864;5.176;2023-08-08T11:42:52;6.15;;;1.80;;
19940;SDS011;10132;50.864;5.176;2023-08-08T11:44:54;5.72;;;1.60;;
19940;SDS011;10132;50.864;5.176;2023-08-08T11:47:00;8.27;;;2.10;;
19940;SDS011;10132;50.864;5.176;2023-08-08T11:49:04;3.55;;;1.58;;
19940;SDS011;10132;50.864;5.176;2023-08-08T11:51:06;3.58;;;1.48;;
19940;SDS011;10132;50.864;5.176;2023-08-08T11:53:09;4.28;;;1.85;;
19940;SDS011;10132;50.864;5.176;2023-08-08T11:55:11;5.43;;;2.10;;
19940;SDS011;10132;50.864;5.176;2023-08-08T11:57:13;3.28;;;1.55;;
19940;SDS011;10132;50.864;5.176;2023-08-08T11:59:15;3.15;;;1.50;;
19940;SDS011;10132;50.864;5.176;2023-08-08T12:01:22;5.93;;;1.60;;
19940;SDS011;10132;50.864;5.176;2023-08-08T12:03:27;6.47;;;2.05;;
19940;SDS011;10132;50.864;5.176;2023-08-08T12:05:29;4.85;;;1.83;;
19940;SDS011;10132;50.864;5.176;2023-08-08T12:07:37;6.65;;;1.75;;
19940;SDS011;10132;50.864;5.176;2023-08-08T12:09:41;3.70;;;1.35;;
19940;SDS011;10132;50.864;5.176;2023-08-08T12:11:43;7.65;;;1.85;;
19940;SDS011;10132;50.864;5.176;2023-08-08T12:13:47;2.80;;;1.48;;
19940;SDS011;10132;50.864;5.176;2023-08-08T12:15:49;5.75;;;1.67;;